Time;durP1;ratioP1;P1;durP2;ratioP2;P2;SDS_P1;SDS_P2;PMS_P1;PMS_P2;Temp;Humidity;BMP_temperature;BMP_pressure;BME280_temperature;BME280_humidity;BME280_pressure;Samples;Min_cycle;Max_cycle;Signal;HPM_P1;HPM_P2
2023/10/11 00:00:24;;;;;;;18.95;8.15;;;;;;;20.34;65.74;100748.21;2225632;77;51734;-74
2023/10/11 00:03:28;;;;;;;18.00;7.60;;;;;;;20.34;66.37;100748.73;2228773;78;23154;-78
2023/10/11 00:06:22;;;;;;;20.48;8.20;;;;;;;20.32;66.58;100741.37;2279727;77;22589;-74
2023/10/11 00:09:38;;;;;;;24.77;7.58;;;;;;;20.33;66.08;100745.73;2257160;77;50344;-75
2023/10/11 00:12:42;;;;;;;;;;;;;;;20.34;65.60;100748.73;2253813;76;22218;-75
2023/10/11 00:15:52;;;;;;;21.97;7.65;;;;;;;20.35;65.47;100738.32;2260938;78;50422;-79
2023/10/11 00:18:55;;;;;;;18.52;7.65;;;;;;;20.32;65.58;100737.34;2240765;78;21709;-74
2023/10/11 00:21:56;;;;;;;17.17;7.62;;;;;;;20.31;65.46;100733.00;2236701;78;22283;-75
2023/10/11 00:24:59;;;;;;;17.57;7.65;;;;;;;20.30;65.26;100729.48;2235666;77;49628;-77
2023/10/11 00:28:01;;;;;;;17.90;7.72;;;;;;;20.32;65.19;100734.65;2235919;78;50596;-77
2023/10/11 00:31:04;;;;;;;19.65;8.03;;;;;;;20.36;65.44;100725.19;2230180;77;50653;-80
2023/10/11 00:34:12;;;;;;;17.80;7.22;;;;;;;20.34;65.26;100719.17;2233022;78;50946;-75
2023/10/11 00:37:10;;;;;;;15.48;7.37;;;;;;;20.36;64.98;100721.98;2232232;77;22304;-75
2023/10/11 00:40:14;;;;;;;15.23;6.92;;;;;;;20.37;64.85;100725.01;2232596;78;51602;-75
2023/10/11 00:43:16;;;;;;;21.10;7.45;;;;;;;20.35;65.01;100723.54;2239288;77;50365;-75
2023/10/11 00:46:25;;;;;;;20.20;8.50;;;;;;;20.33;65.01;100725.58;2254785;78;50339;-75
2023/10/11 00:49:35;;;;;;;17.67;7.50;;;;;;;20.32;65.08;100728.78;2256718;77;52408;-75
2023/10/11 00:52:31;;;;;;;14.63;7.28;;;;;;;20.32;65.00;100727.93;2258659;77;22255;-76
2023/10/11 00:55:34;;;;;;;14.73;7.53;;;;;;;20.33;64.75;100720.20;2280568;76;50421;-75
2023/10/11 00:58:40;;;;;;;17.02;7.75;;;;;;;20.37;64.97;100722.33;2256970;78;52549;-75
2023/10/11 01:01:40;;;;;;;17.70;7.17;;;;;;;20.43;64.70;100719.37;2280238;76;22352;-75
2023/10/11 01:04:42;;;;;;;16.60;7.17;;;;;;;20.40;64.78;100715.21;2280481;77;50507;-75
2023/10/11 01:07:51;;;;;;;13.90;7.17;;;;;;;20.40;64.74;100719.77;2256774;78;50694;-75
2023/10/11 01:10:53;;;;;;;21.20;7.45;;;;;;;20.36;64.53;100711.23;2280571;76;50682;-74
2023/10/11 01:13:55;;;;;;;16.77;6.45;;;;;;;20.34;64.78;100705.22;2262136;77;52524;-74
2023/10/11 01:16:59;;;;;;;17.15;6.83;;;;;;;20.33;64.78;100697.36;2256845;77;51442;-73
2023/10/11 01:20:04;;;;;;;16.30;7.10;;;;;;;20.32;64.93;100703.75;2257189;77;50303;-74
2023/10/11 01:23:05;;;;;;;15.13;7.00;;;;;;;20.32;64.95;100698.37;2281065;76;22302;-74
2023/10/11 01:26:08;;;;;;;14.63;7.08;;;;;;;20.30;64.88;100695.07;2280444;76;51446;-73
2023/10/11 01:29:10;;;;;;;17.92;6.72;;;;;;;20.36;66.11;100690.25;2257189;77;50847;-74
2023/10/11 01:32:12;;;;;;;15.10;7.28;;;;;;;20.40;66.16;100692.37;2281934;76;52722;-83
2023/10/11 01:35:21;;;;;;;16.48;7.40;;;;;;;20.36;65.34;100683.02;2307978;76;50214;-73
2023/10/11 01:38:24;;;;;;;15.93;7.08;;;;;;;20.37;66.35;100683.84;2280472;76;50419;-74
2023/10/11 01:41:29;;;;;;;15.75;6.70;;;;;;;20.39;65.58;100683.97;2281922;76;51589;-74
2023/10/11 01:44:33;;;;;;;20.12;7.92;;;;;;;20.39;65.28;100678.59;2261113;77;51577;-75
2023/10/11 01:47:35;;;;;;;15.13;7.03;;;;;;;20.36;65.16;100672.78;2307892;76;22231;-73
2023/10/11 01:50:38;;;;;;;16.55;6.72;;;;;;;20.36;65.08;100666.89;2307998;76;51512;-75
2023/10/11 01:53:40;;;;;;;11.97;6.62;;;;;;;20.35;65.06;100661.73;2280355;76;51530;-73
2023/10/11 01:56:43;;;;;;;18.45;6.97;;;;;;;20.32;65.06;100656.23;2307959;76;50678;-75
2023/10/11 01:59:46;;;;;;;18.15;7.78;;;;;;;20.33;65.83;100657.05;2256836;76;49993;-75
2023/10/11 02:02:58;;;;;;;16.15;7.15;;;;;;;20.30;65.42;100649.39;2282108;76;51535;-74
2023/10/11 02:05:53;;;;;;;16.62;7.30;;;;;;;20.30;65.35;100653.42;2257031;77;22270;-73
2023/10/11 02:08:55;;;;;;;15.78;7.15;;;;;;;20.29;65.25;100651.22;2282216;76;50574;-73
2023/10/11 02:11:58;;;;;;;16.15;6.87;;;;;;;20.31;65.13;100648.35;2261507;76;51389;-73
2023/10/11 02:15:07;;;;;;;14.55;6.45;;;;;;;20.29;65.25;100650.39;2284243;76;50682;-74
2023/10/11 02:18:10;;;;;;;14.18;7.42;;;;;;;20.29;65.36;100651.73;2258513;77;22779;-77
2023/10/11 02:21:12;;;;;;;13.60;6.95;;;;;;;20.30;65.32;100650.73;2258215;78;50778;-75
2023/10/11 02:24:17;;;;;;;15.63;6.55;;;;;;;20.33;65.24;100647.65;2256692;77;51513;-75
2023/10/11 02:27:22;;;;;;;19.75;7.33;;;;;;;20.34;65.05;100645.27;2280625;77;50692;-73
2023/10/11 02:30:27;;;;;;;13.88;6.03;;;;;;;20.39;65.91;100636.11;2257603;77;22953;-76
2023/10/11 02:33:32;;;;;;;14.68;7.37;;;;;;;20.35;66.32;100632.17;2307274;76;50786;-76
2023/10/11 02:36:36;;;;;;;21.00;7.15;;;;;;;20.38;66.35;100626.40;2257989;78;22297;-75
2023/10/11 02:39:44;;;;;;;14.43;6.72;;;;;;;20.39;66.53;100634.77;2257539;77;50386;-74
2023/10/11 02:42:46;;;;;;;14.35;6.67;;;;;;;20.41;66.19;100630.03;2305103;76;50289;-75
2023/10/11 02:45:50;;;;;;;15.10;6.40;;;;;;;20.43;65.70;100623.95;2257017;77;52469;-73
2023/10/11 02:49:35;;;;;;;12.65;6.33;;;;;;;20.37;65.14;100618.00;2260088;78;50391;-73
2023/10/11 02:52:08;;;;;;;15.13;6.75;;;;;;;20.36;65.36;100617.70;2259396;77;22764;-73
2023/10/11 02:55:20;;;;;;;16.70;6.90;;;;;;;20.33;65.32;100612.72;2257168;78;22307;-74
2023/10/11 02:58:21;;;;;;;13.40;6.05;;;;;;;20.32;65.38;100604.32;2281316;76;22817;-73
2023/10/11 03:01:23;;;;;;;18.02;6.60;;;;;;;20.33;65.29;100616.75;2260089;78;51503;-73
2023/10/11 03:04:32;;;;;;;16.12;6.92;;;;;;;20.33;65.25;100602.80;2259847;77;51592;-74
2023/10/11 03:07:34;;;;;;;17.35;6.83;;;;;;;20.31;65.60;100591.92;2261478;78;22385;-74
2023/10/11 03:10:43;;;;;;;13.50;6.33;;;;;;;20.30;65.26;100583.03;2234214;77;51647;-74
2023/10/11 03:13:43;;;;;;;14.87;7.40;;;;;;;20.32;65.23;100573.42;2272537;77;22335;-74
2023/10/11 03:16:47;;;;;;;17.30;7.30;;;;;;;20.29;65.34;100580.02;2288851;76;51537;-75
2023/10/11 03:19:49;;;;;;;15.78;6.37;;;;;;;20.31;65.26;100579.83;2231995;77;49660;-75
2023/10/11 03:22:51;;;;;;;13.50;6.55;;;;;;;20.33;65.01;100579.13;2288886;77;50416;-75
2023/10/11 03:25:53;;;;;;;12.78;5.97;;;;;;;20.31;64.86;100577.97;2254971;77;50302;-75
2023/10/11 03:28:59;;;;;;;16.55;7.10;;;;;;;20.31;64.82;100583.34;2231743;76;50616;-75
2023/10/11 03:32:04;;;;;;;18.65;6.22;;;;;;;20.35;64.96;100577.08;2288961;77;51541;-74
2023/10/11 03:35:07;;;;;;;14.85;7.33;;;;;;;20.38;65.07;100569.97;2231888;77;51208;-73
2023/10/11 03:38:21;;;;;;;15.35;6.60;;;;;;;20.36;64.96;100568.80;2232793;76;51518;-74
2023/10/11 03:41:28;;;;;;;12.40;6.58;;;;;;;20.36;64.96;100572.02;2236817;76;22411;-74
2023/10/11 03:44:35;;;;;;;11.83;5.97;;;;;;;20.33;65.02;100562.48;2280539;77;23006;-74
2023/10/11 03:47:35;;;;;;;15.10;6.37;;;;;;;20.32;65.16;100558.64;2233028;77;22265;-74
2023/10/11 03:50:47;;;;;;;12.15;6.50;;;;;;;20.29;65.20;100564.41;2232647;77;22828;-74
2023/10/11 03:53:42;;;;;;;13.70;6.85;;;;;;;20.30;65.12;100557.52;2255452;77;22959;-74
2023/10/11 03:56:50;;;;;;;14.28;6.53;;;;;;;20.30;65.12;100548.11;2289031;76;51445;-74
2023/10/11 03:59:51;;;;;;;13.68;6.37;;;;;;;20.36;65.16;100545.14;2233129;77;22383;-74
2023/10/11 04:02:57;;;;;;;16.02;7.00;;;;;;;20.33;65.56;100538.83;2255783;76;50676;-74
2023/10/11 04:05:58;;;;;;;12.07;5.97;;;;;;;20.35;65.84;100542.15;2254847;77;22214;-75
2023/10/11 04:09:04;;;;;;;12.37;6.30;;;;;;;20.38;65.69;100548.47;2231956;77;51750;-77
2023/10/11 04:12:10;;;;;;;13.98;6.62;;;;;;;20.39;66.02;100542.05;2287119;77;50726;-76
2023/10/11 04:15:17;;;;;;;12.50;7.20;;;;;;;20.35;65.01;100547.00;2279107;76;22822;-75
2023/10/11 04:18:20;;;;;;;14.30;5.95;;;;;;;20.32;65.37;100545.20;2258639;78;22151;-76
2023/10/11 04:21:26;;;;;;;9.85;6.10;;;;;;;20.31;65.14;100548.41;2258599;77;22221;-76
2023/10/11 04:24:21;;;;;;;14.45;6.40;;;;;;;20.32;65.27;100542.52;2282350;76;22272;-76
2023/10/11 04:27:45;;;;;;;12.05;6.45;;;;;;;20.32;65.12;100535.80;2282150;76;51518;-76
2023/10/11 04:30:41;;;;;;;12.75;6.22;;;;;;;20.32;64.76;100545.20;2285077;76;22221;-77
2023/10/11 04:33:32;;;;;;;11.65;6.10;;;;;;;20.32;65.24;100539.83;2305397;76;22719;-77
2023/10/11 04:36:36;;;;;;;12.60;6.97;;;;;;;20.32;65.13;100537.14;2256662;78;51540;-77
2023/10/11 04:39:49;;;;;;;13.53;6.37;;;;;;;20.31;64.98;100532.81;2280636;76;22352;-77
2023/10/11 04:42:42;;;;;;;14.15;6.67;;;;;;;20.28;65.19;100541.27;2264488;77;22727;-76
2023/10/11 04:45:44;;;;;;;16.55;6.33;;;;;;;20.27;65.34;100532.88;2283026;77;50723;-75
2023/10/11 04:48:48;;;;;;;22.07;6.72;;;;;;;20.25;65.86;100536.30;2281894;76;52340;-76
2023/10/11 04:51:51;;;;;;;15.85;6.90;;;;;;;20.23;65.62;100534.62;2280398;76;22343;-76
2023/10/11 04:54:56;;;;;;;14.43;6.33;;;;;;;20.25;65.03;100530.92;2280050;76;50692;-77
2023/10/11 04:58:08;;;;;;;15.55;6.08;;;;;;;20.24;65.51;100539.47;2307120;76;51615;-77
2023/10/11 05:01:08;;;;;;;17.48;6.70;;;;;;;20.27;65.68;100527.50;2278724;76;22302;-78
2023/10/11 05:04:12;;;;;;;14.27;6.60;;;;;;;20.26;65.52;100531.23;2332546;74;22333;-76
2023/10/11 05:07:12;;;;;;;16.05;6.33;;;;;;;20.27;65.52;100527.02;2284173;76;22208;-77
2023/10/11 05:13:36;;;;;;;16.05;6.25;;;;;;;20.28;65.69;100539.92;2244333;77;22292;-77
2023/10/11 05:16:29;;;;;;;27.17;7.45;;;;;;;20.30;65.68;100537.88;2273684;77;22032;-77
2023/10/11 05:19:35;;;;;;;15.15;6.47;;;;;;;20.30;66.10;100526.61;2245082;78;50151;-77
2023/10/11 05:23:05;;;;;;;21.25;6.47;;;;;;;20.25;66.11;100525.03;2248330;77;22344;-77
2023/10/11 05:29:09;;;;;;;18.98;7.12;;;;;;;20.25;65.96;100534.44;2244113;78;22298;-77
2023/10/11 05:32:23;;;;;;;19.17;6.58;;;;;;;20.29;66.04;100530.83;2277552;77;22424;-78
2023/10/11 05:52:08;;;;;;;25.72;8.40;;;;;;;20.27;67.08;100532.38;2281298;77;24403;-76
2023/10/11 05:55:11;;;;;;;21.37;6.80;;;;;;;20.28;67.06;100526.49;2280781;77;51522;-77
2023/10/11 05:58:13;;;;;;;22.82;6.62;;;;;;;20.29;67.00;100520.08;2246934;77;51508;-77
2023/10/11 06:01:22;;;;;;;19.12;7.00;;;;;;;20.29;66.97;100523.59;2223286;78;50726;-76
2023/10/11 06:04:24;;;;;;;27.22;6.85;;;;;;;20.28;66.93;100531.86;2246572;78;51741;-77
2023/10/11 06:07:34;;;;;;;23.18;7.15;;;;;;;20.27;66.78;100515.41;2199931;78;51468;-76
2023/10/11 06:10:51;;;;;;;19.70;7.85;;;;;;;20.28;66.75;100517.09;2247212;78;21918;-77
2023/10/11 06:13:36;;;;;;;21.00;7.00;;;;;;;20.28;66.58;100511.72;2276262;75;21983;-77
2023/10/11 06:16:38;;;;;;;19.80;6.30;;;;;;;20.29;66.45;100518.73;2315435;75;50664;-76
2023/10/11 06:19:53;;;;;;;24.80;7.28;;;;;;;20.30;66.44;100517.73;2285525;76;50497;-76
2023/10/11 06:22:44;;;;;;;21.42;7.17;;;;;;;20.30;66.44;100506.98;2267205;76;22484;-75
2023/10/11 06:25:53;;;;;;;19.37;6.75;;;;;;;20.35;66.18;100515.27;2286336;76;50652;-76
2023/10/11 06:29:09;;;;;;;17.73;5.83;;;;;;;20.32;66.25;100508.44;2264886;76;51140;-77
2023/10/11 06:32:12;;;;;;;20.23;7.08;;;;;;;20.33;66.11;100504.71;2266973;77;50562;-72
2023/10/11 06:35:23;;;;;;;22.62;6.45;;;;;;;20.34;66.03;100506.88;2285642;76;51642;-77
2023/10/11 06:38:18;;;;;;;19.50;6.33;;;;;;;20.36;65.98;100508.34;2263189;76;22292;-77
2023/10/11 06:41:37;;;;;;;14.95;6.42;;;;;;;20.41;65.93;100512.61;2285272;76;50397;-77
2023/10/11 06:44:40;;;;;;;18.30;6.83;;;;;;;20.40;65.90;100512.30;2286061;76;50734;-77
2023/10/11 06:47:42;;;;;;;22.30;6.42;;;;;;;20.39;65.66;100513.84;2258402;76;50306;-76
2023/10/11 06:50:46;;;;;;;24.47;6.60;;;;;;;20.34;65.72;100524.34;2259431;78;51604;-74
2023/10/11 06:53:48;;;;;;;16.50;6.03;;;;;;;20.36;65.67;100525.81;2312342;76;51161;-74
2023/10/11 06:56:51;;;;;;;18.95;6.53;;;;;;;20.40;66.14;100530.30;2260780;77;50805;-75
2023/10/11 06:59:57;;;;;;;20.82;6.92;;;;;;;20.39;66.18;100532.13;2284310;76;51425;-75
2023/10/11 07:06:22;;;;;;;14.10;5.55;;;;;;;20.37;66.05;100527.48;2264749;77;24188;-77
2023/10/11 07:09:29;;;;;;;18.12;6.25;;;;;;;20.40;66.10;100528.95;2284070;76;50530;-76
2023/10/11 07:12:40;;;;;;;14.98;6.25;;;;;;;20.40;66.05;100526.27;2266350;76;21991;-75
2023/10/11 07:15:46;;;;;;;22.40;6.08;;;;;;;20.41;66.03;100527.91;2345113;72;50932;-74
2023/10/11 07:18:54;;;;;;;18.17;6.47;;;;;;;20.43;66.01;100528.55;2359020;74;51675;-77
2023/10/11 07:21:53;;;;;;;14.27;6.33;;;;;;;20.45;66.04;100534.56;2362091;73;22170;-75
2023/10/11 07:24:56;;;;;;;12.10;5.72;;;;;;;20.47;65.98;100529.80;2364655;73;51559;-76
2023/10/11 07:28:02;;;;;;;16.97;6.22;;;;;;;20.48;65.92;100529.30;2390101;72;51225;-76
2023/10/11 07:31:05;;;;;;;14.15;6.17;;;;;;;20.46;65.91;100516.05;2428521;72;22863;-75
2023/10/11 07:34:09;;;;;;;13.45;5.80;;;;;;;20.46;65.94;100520.08;2423964;72;22723;-75
2023/10/11 07:37:12;;;;;;;13.08;5.92;;;;;;;20.46;65.93;100518.73;2394965;73;50755;-75
2023/10/11 07:40:20;;;;;;;18.73;6.72;;;;;;;20.45;65.96;100521.13;2407598;73;51549;-75
2023/10/11 07:43:18;;;;;;;14.03;6.12;;;;;;;20.44;65.97;100529.67;2402586;73;22206;-75
2023/10/11 07:46:20;;;;;;;11.85;5.80;;;;;;;20.43;65.96;100528.55;2423736;73;50267;-76
2023/10/11 07:49:25;;;;;;;13.58;5.83;;;;;;;20.41;65.95;100522.53;2424030;73;51478;-75
2023/10/11 07:52:28;;;;;;;15.30;6.00;;;;;;;20.41;66.01;100525.22;2397708;73;51208;-75
2023/10/11 07:55:30;;;;;;;15.20;5.92;;;;;;;20.43;66.02;100513.77;2418278;73;50619;-75
2023/10/11 07:58:35;;;;;;;13.50;5.85;;;;;;;20.42;66.05;100504.02;2421506;73;51558;-75
2023/10/11 08:01:43;;;;;;;12.30;6.40;;;;;;;20.41;66.02;100513.12;2401772;73;50373;-75
2023/10/11 08:04:47;;;;;;;11.53;5.67;;;;;;;20.41;65.94;100506.41;2410333;73;50653;-75
2023/10/11 08:07:49;;;;;;;13.68;6.28;;;;;;;20.42;65.90;100491.94;2394577;73;22857;-75
2023/10/11 08:10:54;;;;;;;15.23;6.25;;;;;;;20.47;66.15;100500.75;2395602;73;49994;-76
2023/10/11 08:14:01;;;;;;;17.48;5.62;;;;;;;20.49;66.13;100504.07;2422247;73;22510;-76
2023/10/11 08:16:59;;;;;;;14.63;5.75;;;;;;;20.51;65.93;100510.91;2422554;72;22302;-76
2023/10/11 08:20:05;;;;;;;12.78;5.28;;;;;;;20.47;65.87;100501.57;2397460;73;51389;-76
2023/10/11 08:23:08;;;;;;;11.55;5.40;;;;;;;20.44;65.87;100501.45;2423589;73;22293;-77
2023/10/11 08:26:14;;;;;;;11.90;5.80;;;;;;;20.42;65.95;100490.59;2425794;71;22322;-77
2023/10/11 08:29:32;;;;;;;14.58;5.40;;;;;;;20.40;65.98;100494.02;2423469;73;22930;-77
2023/10/11 08:32:25;;;;;;;12.90;5.90;;;;;;;20.41;65.99;100501.03;2417985;72;22530;-77
2023/10/11 08:35:31;;;;;;;12.15;5.87;;;;;;;20.39;66.00;100497.19;2397215;73;23161;-77
2023/10/11 08:38:28;;;;;;;12.37;5.20;;;;;;;20.39;66.00;100496.37;2423539;73;22959;-77
2023/10/11 08:41:31;;;;;;;18.05;5.62;;;;;;;20.39;65.99;100492.34;2369746;73;51266;-77
2023/10/11 08:44:33;;;;;;;12.05;5.17;;;;;;;20.37;66.02;100489.86;2428967;73;51577;-77
2023/10/11 08:47:35;;;;;;;10.70;5.58;;;;;;;20.37;66.02;100489.01;2421648;73;51537;-77
2023/10/11 08:50:37;;;;;;;12.25;5.25;;;;;;;20.36;66.04;100493.56;2395845;73;51500;-77
2023/10/11 08:53:47;;;;;;;10.75;4.90;;;;;;;20.37;66.04;100495.73;2395253;73;50325;-77
2023/10/11 08:56:54;;;;;;;10.10;5.20;;;;;;;20.37;66.00;100507.82;2422876;73;50269;-77
2023/10/11 08:59:56;;;;;;;16.20;5.80;;;;;;;20.36;66.00;100502.97;2423765;73;22299;-78
2023/10/11 09:02:58;;;;;;;11.57;4.83;;;;;;;20.36;65.94;100497.59;2421304;73;22475;-78
2023/10/11 09:06:00;;;;;;;15.03;5.47;;;;;;;20.35;65.97;100501.32;2368269;73;49626;-76
2023/10/11 09:09:04;;;;;;;13.38;5.28;;;;;;;20.36;65.96;100496.77;2424092;73;50254;-76
2023/10/11 09:12:29;;;;;;;10.23;5.03;;;;;;;20.35;65.97;100496.47;2417899;73;50293;-79
2023/10/11 09:15:14;;;;;;;13.48;5.92;;;;;;;20.34;65.99;100490.23;2407451;73;22285;-77
2023/10/11 09:18:18;;;;;;;10.98;5.30;;;;;;;20.34;65.93;100490.23;2399668;73;22433;-77
2023/10/11 09:21:20;;;;;;;14.18;5.05;;;;;;;20.33;65.95;100483.22;2399460;73;52930;-77
2023/10/11 09:24:28;;;;;;;12.40;5.10;;;;;;;20.33;65.95;100489.11;2398989;73;52309;-77
2023/10/11 09:27:34;;;;;;;12.45;5.60;;;;;;;20.33;65.96;100490.45;2400012;73;22268;-77
2023/10/11 09:30:44;;;;;;;10.72;5.58;;;;;;;20.35;65.87;100496.47;2433999;71;22339;-78
2023/10/11 09:33:49;;;;;;;9.78;4.67;;;;;;;20.32;65.93;100512.47;2434827;73;22336;-77
2023/10/11 09:36:46;;;;;;;8.23;4.75;;;;;;;20.34;65.89;100526.52;2435193;71;22800;-76
2023/10/11 09:39:53;;;;;;;8.68;4.92;;;;;;;20.33;65.87;100510.61;2436289;73;51381;-77
2023/10/11 09:42:52;;;;;;;11.95;4.83;;;;;;;20.34;65.88;100529.72;2391542;73;22400;-77
2023/10/11 09:45:54;;;;;;;19.62;5.67;;;;;;;20.33;65.89;100525.39;2395122;73;51236;-78
2023/10/11 09:49:03;;;;;;;10.75;4.72;;;;;;;20.32;65.90;100504.41;2419643;73;50695;-77
2023/10/11 09:52:07;;;;;;;9.23;4.72;;;;;;;20.31;65.91;100511.31;2414715;72;50724;-78
2023/10/11 09:55:10;;;;;;;10.15;4.62;;;;;;;20.34;65.79;100498.30;2369414;72;52371;-76
2023/10/11 09:58:20;;;;;;;13.90;5.20;;;;;;;20.32;65.81;100503.06;2423652;73;22336;-76
2023/10/11 10:01:42;;;;;;;8.75;5.00;;;;;;;20.34;65.76;100500.98;2423082;73;51178;-76
2023/10/11 10:04:53;;;;;;;9.93;4.60;;;;;;;20.32;65.83;100503.55;2421305;72;51647;-77
2023/10/11 10:07:58;;;;;;;12.30;4.90;;;;;;;20.30;65.84;100498.40;2421726;73;51536;-79
2023/10/11 10:11:02;;;;;;;12.25;5.08;;;;;;;20.31;65.79;100498.70;2393648;73;22245;-76
2023/10/11 10:14:05;;;;;;;9.35;5.17;;;;;;;20.29;65.82;100504.78;2385946;73;22759;-77
2023/10/11 10:17:12;;;;;;;11.30;4.97;;;;;;;20.29;65.84;100494.03;2353986;74;51509;-78
2023/10/11 10:20:33;;;;;;;9.28;4.70;;;;;;;20.32;65.76;100487.44;2379626;74;51548;-78
2023/10/11 10:23:40;;;;;;;9.80;4.92;;;;;;;20.32;65.80;100503.55;2379447;74;52883;-78
2023/10/11 10:26:43;;;;;;;10.30;4.92;;;;;;;20.32;65.82;100496.84;2380720;74;22299;-79
2023/10/11 10:29:55;;;;;;;11.25;5.03;;;;;;;20.34;65.70;100501.51;2354465;74;51772;-79
2023/10/11 10:33:19;;;;;;;9.45;4.92;;;;;;;20.33;65.63;100502.03;2379478;74;50681;-78
2023/10/11 10:36:28;;;;;;;10.98;4.65;;;;;;;20.32;65.67;100509.78;2399694;71;50454;-77
2023/10/11 10:39:46;;;;;;;12.20;4.72;;;;;;;20.32;65.63;100500.87;2401369;73;22787;-77
2023/10/11 10:42:45;;;;;;;8.93;4.90;;;;;;;20.30;65.66;100490.34;2410648;73;22763;-76
2023/10/11 10:45:47;;;;;;;9.28;4.87;;;;;;;20.29;65.62;100497.23;2378492;73;22588;-76
2023/10/11 10:48:51;;;;;;;8.38;5.17;;;;;;;20.31;65.37;100485.27;2383555;74;50697;-77
2023/10/11 10:51:56;;;;;;;11.73;5.67;;;;;;;20.30;65.45;100485.48;2381241;74;50669;-78
2023/10/11 10:55:05;;;;;;;8.00;4.65;;;;;;;20.33;65.29;100475.16;2381502;73;22796;-76
2023/10/11 10:58:07;;;;;;;8.03;4.55;;;;;;;20.30;65.61;100477.42;2383504;72;51710;-78
2023/10/11 11:01:09;;;;;;;9.13;4.85;;;;;;;20.30;65.61;100473.39;2384015;73;51615;-78
2023/10/11 11:04:15;;;;;;;11.10;4.35;;;;;;;20.29;65.57;100487.84;2383344;74;52308;-78
2023/10/11 11:07:25;;;;;;;8.13;4.58;;;;;;;20.28;65.51;100483.50;2402570;72;51613;-79
2023/10/11 11:10:30;;;;;;;7.85;4.97;;;;;;;20.28;65.58;100482.16;2398152;73;50476;-78
2023/10/11 11:13:31;;;;;;;8.20;4.47;;;;;;;20.27;65.34;100480.48;2426456;72;22319;-78
2023/10/11 11:16:34;;;;;;;9.20;4.50;;;;;;;20.29;65.29;100465.00;2426942;73;50733;-78
2023/10/11 11:19:36;;;;;;;8.10;4.55;;;;;;;20.30;65.07;100472.05;2370648;73;50975;-78
2023/10/11 11:22:39;;;;;;;7.33;4.62;;;;;;;20.30;65.20;100465.33;2397968;73;50428;-79
2023/10/11 11:25:41;;;;;;;7.55;4.40;;;;;;;20.30;65.36;100455.92;2398500;73;50665;-78
2023/10/11 11:28:45;;;;;;;9.20;4.85;;;;;;;20.30;65.50;100455.92;2397828;73;52476;-78
2023/10/11 11:31:58;;;;;;;7.72;4.37;;;;;;;20.29;65.50;100451.56;2424194;73;51624;-76
2023/10/11 11:35:09;;;;;;;9.35;4.97;;;;;;;20.30;65.23;100442.49;2395780;73;22473;-77
2023/10/11 11:38:19;;;;;;;10.05;4.47;;;;;;;20.31;65.07;100436.08;2380293;74;21885;-76
2023/10/11 11:41:18;;;;;;;8.25;4.62;;;;;;;20.28;65.08;100437.30;2379575;74;22329;-77
2023/10/11 11:44:25;;;;;;;7.45;3.90;;;;;;;20.27;65.14;100430.77;2380998;74;50395;-78
2023/10/11 11:47:29;;;;;;;10.20;4.35;;;;;;;20.27;65.01;100428.09;2354672;74;50307;-77
2023/10/11 11:50:33;;;;;;;8.83;4.58;;;;;;;20.30;65.07;100424.50;2354551;74;50668;-76
2023/10/11 11:53:35;;;;;;;8.65;4.22;;;;;;;20.37;64.85;100427.20;2355411;74;49764;-78
2023/10/11 11:56:37;;;;;;;9.03;4.20;;;;;;;20.33;64.98;100416.04;2354374;74;50428;-77
2023/10/11 11:59:43;;;;;;;6.72;4.17;;;;;;;20.32;65.00;100408.16;2354325;74;50689;-78
2023/10/11 12:02:45;;;;;;;5.75;4.12;;;;;;;20.32;64.87;100422.45;2328081;74;22774;-76
2023/10/11 12:05:47;;;;;;;6.58;3.98;;;;;;;20.31;64.96;100401.97;2366014;73;50708;-77
2023/10/11 12:08:57;;;;;;;6.35;4.05;;;;;;;20.38;64.81;100405.52;2381036;73;53099;-77
2023/10/11 12:12:05;;;;;;;9.00;4.05;;;;;;;20.36;64.70;100406.75;2423402;73;50688;-77
2023/10/11 12:15:16;;;;;;;6.60;4.12;;;;;;;20.34;64.78;100409.63;2397010;73;50951;-77
2023/10/11 12:18:14;;;;;;;7.87;4.90;;;;;;;20.34;64.75;100396.70;2396551;73;22417;-78
2023/10/11 12:21:16;;;;;;;7.17;3.70;;;;;;;20.32;64.76;100392.05;2397854;73;22406;-77
2023/10/11 12:24:21;;;;;;;6.47;3.70;;;;;;;20.34;64.59;100389.47;2423497;73;50691;-77
2023/10/11 12:27:23;;;;;;;7.83;3.95;;;;;;;20.37;64.51;100398.98;2396389;73;22764;-77
2023/10/11 12:30:25;;;;;;;6.45;3.80;;;;;;;20.34;64.47;100392.16;2423836;73;51527;-77
2023/10/11 12:33:30;;;;;;;7.97;4.17;;;;;;;20.38;64.58;100399.32;2369243;73;52367;-77
2023/10/11 12:36:31;;;;;;;7.17;4.00;;;;;;;20.33;64.32;100394.55;2389391;73;22347;-77
2023/10/11 12:39:33;;;;;;;7.10;3.77;;;;;;;20.31;64.29;100391.74;2391659;73;51426;-76
2023/10/11 12:42:35;;;;;;;7.00;4.22;;;;;;;20.31;64.26;100394.43;2361569;73;50991;-77
2023/10/11 12:45:43;;;;;;;7.10;3.87;;;;;;;20.29;64.31;100409.39;2389029;73;50230;-76
2023/10/11 12:48:42;;;;;;;5.95;3.60;;;;;;;20.28;64.15;100401.55;2389148;73;22372;-77
2023/10/11 12:51:45;;;;;;;8.25;4.30;;;;;;;20.30;64.27;100396.81;2387718;73;50322;-77
2023/10/11 12:54:47;;;;;;;8.28;3.90;;;;;;;20.30;64.33;100390.92;2412354;73;50456;-77
2023/10/11 12:57:49;;;;;;;6.83;4.08;;;;;;;20.27;64.08;100389.13;2388958;73;50991;-78
2023/10/11 13:00:53;;;;;;;5.35;3.58;;;;;;;20.27;64.18;100391.33;2387785;73;50612;-78
2023/10/11 13:04:06;;;;;;;6.50;3.52;;;;;;;20.29;64.15;100386.55;2389495;73;23318;-77
2023/10/11 13:07:02;;;;;;;6.20;3.90;;;;;;;20.29;64.13;100376.33;2416929;73;22262;-76
2023/10/11 13:10:06;;;;;;;6.25;4.08;;;;;;;20.26;64.08;100374.05;2425173;73;51604;-76
2023/10/11 13:13:09;;;;;;;7.15;3.90;;;;;;;20.27;64.11;100367.64;2423562;73;51531;-77
2023/10/11 13:16:26;;;;;;;7.33;4.05;;;;;;;20.27;64.09;100368.48;2395545;73;50550;-77
2023/10/11 13:19:18;;;;;;;5.50;3.92;;;;;;;20.27;64.01;100360.92;2393207;73;22917;-77
2023/10/11 13:22:20;;;;;;;6.87;4.08;;;;;;;20.28;64.24;100365.28;2395118;73;52555;-77
2023/10/11 13:25:23;;;;;;;7.53;4.05;;;;;;;20.28;64.25;100367.97;2423806;72;51549;-76
2023/10/11 13:28:26;;;;;;;8.85;4.00;;;;;;;20.28;64.21;100363.41;2421688;73;50658;-77
2023/10/11 13:31:29;;;;;;;7.03;4.05;;;;;;;20.28;64.05;100355.87;2367879;73;51211;-78
2023/10/11 13:34:35;;;;;;;5.62;3.60;;;;;;;20.28;64.02;100346.47;2423457;73;51632;-78
2023/10/11 13:37:37;;;;;;;8.10;4.58;;;;;;;20.28;64.02;100358.56;2422681;73;52798;-78
2023/10/11 13:40:40;;;;;;;5.97;3.95;;;;;;;20.28;64.01;100355.87;2397286;73;51446;-78
2023/10/11 13:43:44;;;;;;;7.15;3.80;;;;;;;20.28;63.99;100363.41;2396924;73;50640;-77
2023/10/11 13:46:51;;;;;;;5.97;3.52;;;;;;;20.26;63.97;100355.24;2397784;73;24649;-77
2023/10/11 13:49:51;;;;;;;5.40;3.40;;;;;;;20.29;63.92;100349.46;2397521;73;22779;-78
2023/10/11 13:52:53;;;;;;;6.55;3.80;;;;;;;20.30;63.90;100345.77;2423274;72;51462;-77
2023/10/11 13:55:58;;;;;;;7.55;4.00;;;;;;;20.32;63.89;100347.70;2397002;73;50917;-78
2023/10/11 13:59:02;;;;;;;6.20;3.72;;;;;;;20.29;63.92;100342.22;2422757;72;22352;-77
2023/10/11 14:05:32;;;;;;;5.35;3.75;;;;;;;20.29;63.97;100341.41;2394824;73;22466;-77
2023/10/11 14:08:40;;;;;;;4.67;3.50;;;;;;;20.29;64.09;100330.66;2388808;73;22381;-77
2023/10/11 14:11:33;;;;;;;6.67;3.65;;;;;;;20.29;64.08;100322.59;2395864;73;22432;-77
2023/10/11 14:14:39;;;;;;;4.87;3.52;;;;;;;20.30;64.04;100331.81;2425312;72;50622;-78
2023/10/11 14:17:39;;;;;;;4.92;3.75;;;;;;;20.29;64.08;100322.59;2425234;72;22937;-77
2023/10/11 14:20:48;;;;;;;5.30;3.55;;;;;;;20.30;64.10;100317.55;2368191;73;51691;-77
2023/10/11 14:23:45;;;;;;;5.10;3.80;;;;;;;20.29;64.11;100319.91;2424562;73;22884;-78
2023/10/11 14:26:47;;;;;;;6.42;3.50;;;;;;;20.31;64.04;100323.22;2426426;73;50798;-77
2023/10/11 14:29:49;;;;;;;6.42;3.42;;;;;;;20.31;64.02;100320.54;2397529;73;51538;-77
2023/10/11 14:32:52;;;;;;;6.47;3.50;;;;;;;20.30;64.06;100314.34;2396956;73;50508;-78
2023/10/11 14:35:54;;;;;;;8.83;3.87;;;;;;;20.30;64.01;100314.34;2370089;72;52406;-78
2023/10/11 14:38:57;;;;;;;9.53;3.70;;;;;;;20.34;64.31;100314.75;2405878;73;51557;-77